sensor_id;sensor_type;location;lat;lon;timestamp;pressure;altitude;pressure_sealevel;temperature;humidity
18264;BME280;9258;48.668;9.172;2022-09-09T00:01:37;96272.75;;;15.12;100.00
18264;BME280;9258;48.668;9.172;2022-09-09T00:04:45;96263.53;;;15.09;100.00
18264;BME280;9258;48.668;9.172;2022-09-09T00:07:52;96267.75;;;15.10;100.00
18264;BME280;9258;48.668;9.172;2022-09-09T00:10:58;96263.28;;;15.11;100.00
18264;BME280;9258;48.668;9.172;2022-09-09T00:14:03;96260.38;;;15.12;100.00
18264;BME280;9258;48.668;9.172;2022-09-09T00:17:12;96249.06;;;15.17;100.00
18264;BME280;9258;48.668;9.172;2022-09-09T00:20:20;96247.50;;;15.21;100.00
18264;BME280;9258;48.668;9.172;2022-09-09T00:23:28;96244.88;;;15.21;100.00
18264;BME280;9258;48.668;9.172;2022-09-09T00:26:36;96241.16;;;15.27;100.00
18264;BME280;9258;48.668;9.172;2022-09-09T00:29:43;96246.69;;;15.31;100.00
18264;BME280;9258;48.668;9.172;2022-09-09T00:32:46;96247.47;;;15.31;100.00
18264;BME280;9258;48.668;9.172;2022-09-09T00:35:49;96241.66;;;15.39;100.00
18264;BME280;9258;48.668;9.172;2022-09-09T00:38:56;96246.13;;;15.49;100.00
18264;BME280;9258;48.668;9.172;2022-09-09T00:42:10;96242.97;;;15.52;100.00
18264;BME280;9258;48.668;9.172;2022-09-09T00:45:29;96242.16;;;15.52;100.00
18264;BME280;9258;48.668;9.172;2022-09-09T00:48:41;96252.22;;;15.55;100.00
18264;BME280;9258;48.668;9.172;2022-09-09T00:51:54;96243.00;;;15.57;100.00
18264;BME280;9258;48.668;9.172;2022-09-09T00:55:06;96245.34;;;15.59;100.00
18264;BME280;9258;48.668;9.172;2022-09-09T00:58:13;96247.44;;;15.67;100.00
18264;BME280;9258;48.668;9.172;2022-09-09T01:01:14;96247.41;;;15.72;100.00
18264;BME280;9258;48.668;9.172;2022-09-09T01:04:20;96245.56;;;15.77;99.12
18264;BME280;9258;48.668;9.172;2022-09-09T01:07:26;96249.78;;;15.78;99.13
18264;BME280;9258;48.668;9.172;2022-09-09T01:10:34;96246.88;;;15.80;99.13
18264;BME280;9258;48.668;9.172;2022-09-09T01:13:41;96238.44;;;15.78;97.87
18264;BME280;9258;48.668;9.172;2022-09-09T01:16:44;96241.59;;;15.80;97.18
18264;BME280;9258;48.668;9.172;2022-09-09T01:19:55;96243.97;;;15.76;97.94
18264;BME280;9258;48.668;9.172;2022-09-09T01:23:16;96253.22;;;15.74;98.98
18264;BME280;9258;48.668;9.172;2022-09-09T01:26:25;96255.84;;;15.79;97.95
18264;BME280;9258;48.668;9.172;2022-09-09T01:29:28;96254.00;;;15.74;99.16
18264;BME280;9258;48.668;9.172;2022-09-09T01:32:42;96254.28;;;15.68;100.00
18264;BME280;9258;48.668;9.172;2022-09-09T01:35:48;96258.78;;;15.67;98.28
18264;BME280;9258;48.668;9.172;2022-09-09T01:38:52;96256.66;;;15.64;98.95
18264;BME280;9258;48.668;9.172;2022-09-09T01:41:55;96256.13;;;15.62;99.79
18264;BME280;9258;48.668;9.172;2022-09-09T01:44:58;96255.09;;;15.58;99.31
18264;BME280;9258;48.668;9.172;2022-09-09T01:48:00;96251.41;;;15.59;99.01
18264;BME280;9258;48.668;9.172;2022-09-09T01:51:02;96253.75;;;15.71;98.38
18264;BME280;9258;48.668;9.172;2022-09-09T01:54:04;96259.03;;;15.61;98.22
18264;BME280;9258;48.668;9.172;2022-09-09T01:57:15;96258.00;;;15.57;98.67
18264;BME280;9258;48.668;9.172;2022-09-09T02:00:19;96264.03;;;15.52;99.96
18264;BME280;9258;48.668;9.172;2022-09-09T02:03:24;96272.72;;;15.47;100.00
18264;BME280;9258;48.668;9.172;2022-09-09T02:06:30;96271.16;;;15.52;99.81
18264;BME280;9258;48.668;9.172;2022-09-09T02:09:35;96268.00;;;15.49;99.11
18264;BME280;9258;48.668;9.172;2022-09-09T02:12:42;96271.16;;;15.52;100.00
18264;BME280;9258;48.668;9.172;2022-09-09T02:15:48;96261.66;;;15.50;100.00
18264;BME280;9258;48.668;9.172;2022-09-09T02:18:56;96255.34;;;15.46;100.00
18264;BME280;9258;48.668;9.172;2022-09-09T02:22:00;96256.13;;;15.47;100.00
18264;BME280;9258;48.668;9.172;2022-09-09T02:25:03;96249.28;;;15.61;99.13
18264;BME280;9258;48.668;9.172;2022-09-09T02:28:09;96250.91;;;15.57;98.96
18264;BME280;9258;48.668;9.172;2022-09-09T02:31:14;96248.00;;;15.43;99.85
18264;BME280;9258;48.668;9.172;2022-09-09T02:34:20;96243.00;;;15.27;100.00
18264;BME280;9258;48.668;9.172;2022-09-09T02:37:26;96248.56;;;15.20;100.00
18264;BME280;9258;48.668;9.172;2022-09-09T02:40:30;96258.28;;;15.14;100.00
18264;BME280;9258;48.668;9.172;2022-09-09T02:43:34;96257.50;;;15.09;100.00
18264;BME280;9258;48.668;9.172;2022-09-09T02:46:44;96262.22;;;15.12;100.00
18264;BME280;9258;48.668;9.172;2022-09-09T02:50:00;96254.31;;;15.12;100.00
18264;BME280;9258;48.668;9.172;2022-09-09T02:53:09;96254.88;;;15.19;100.00
18264;BME280;9258;48.668;9.172;2022-09-09T02:56:15;96256.97;;;15.32;100.00
18264;BME280;9258;48.668;9.172;2022-09-09T02:59:19;96253.53;;;15.27;100.00
18264;BME280;9258;48.668;9.172;2022-09-09T03:02:20;96248.00;;;15.23;100.00
18264;BME280;9258;48.668;9.172;2022-09-09T03:05:22;96251.41;;;15.24;100.00
18264;BME280;9258;48.668;9.172;2022-09-09T03:08:23;96248.53;;;15.25;100.00
18264;BME280;9258;48.668;9.172;2022-09-09T03:11:25;96243.53;;;15.29;100.00
18264;BME280;9258;48.668;9.172;2022-09-09T03:14:28;96248.22;;;15.47;100.00
18264;BME280;9258;48.668;9.172;2022-09-09T03:17:30;96250.88;;;15.52;100.00
18264;BME280;9258;48.668;9.172;2022-09-09T03:20:32;96255.91;;;15.38;100.00
18264;BME280;9258;48.668;9.172;2022-09-09T03:23:33;96256.97;;;15.27;100.00
18264;BME280;9258;48.668;9.172;2022-09-09T03:26:35;96259.06;;;15.30;100.00
18264;BME280;9258;48.668;9.172;2022-09-09T03:29:39;96257.75;;;15.23;100.00
18264;BME280;9258;48.668;9.172;2022-09-09T03:32:40;96250.91;;;15.22;100.00
18264;BME280;9258;48.668;9.172;2022-09-09T03:35:45;96267.50;;;15.17;100.00
18264;BME280;9258;48.668;9.172;2022-09-09T03:38:48;96269.34;;;15.01;100.00
18264;BME280;9258;48.668;9.172;2022-09-09T03:41:50;96261.19;;;14.93;100.00
18264;BME280;9258;48.668;9.172;2022-09-09T03:44:53;96262.22;;;14.92;100.00
18264;BME280;9258;48.668;9.172;2022-09-09T03:47:55;96267.78;;;14.95;100.00
18264;BME280;9258;48.668;9.172;2022-09-09T03:50:57;96249.06;;;14.92;100.00
18264;BME280;9258;48.668;9.172;2022-09-09T03:54:01;96256.19;;;14.91;100.00
18264;BME280;9258;48.668;9.172;2022-09-09T03:57:05;96252.50;;;14.82;100.00
18264;BME280;9258;48.668;9.172;2022-09-09T04:00:09;96253.00;;;14.89;100.00
18264;BME280;9258;48.668;9.172;2022-09-09T04:03:11;96259.31;;;14.98;100.00
18264;BME280;9258;48.668;9.172;2022-09-09T04:06:14;96264.34;;;14.95;100.00
18264;BME280;9258;48.668;9.172;2022-09-09T04:09:15;96267.25;;;14.93;100.00
18264;BME280;9258;48.668;9.172;2022-09-09T04:12:17;96271.72;;;14.93;100.00
18264;BME280;9258;48.668;9.172;2022-09-09T04:15:19;96269.88;;;14.93;100.00
18264;BME280;9258;48.668;9.172;2022-09-09T04:18:22;96275.94;;;14.94;100.00
18264;BME280;9258;48.668;9.172;2022-09-09T04:21:24;96266.97;;;14.90;100.00
18264;BME280;9258;48.668;9.172;2022-09-09T04:24:25;96269.34;;;14.91;100.00
18264;BME280;9258;48.668;9.172;2022-09-09T04:27:27;96264.88;;;14.92;100.00
18264;BME280;9258;48.668;9.172;2022-09-09T04:30:30;96264.59;;;14.93;100.00
18264;BME280;9258;48.668;9.172;2022-09-09T04:33:32;96261.72;;;14.95;100.00
18264;BME280;9258;48.668;9.172;2022-09-09T04:36:33;96266.97;;;15.00;100.00
18264;BME280;9258;48.668;9.172;2022-09-09T04:39:35;96269.34;;;15.06;100.00
18264;BME280;9258;48.668;9.172;2022-09-09T04:42:36;96279.63;;;15.03;100.00
18264;BME280;9258;48.668;9.172;2022-09-09T04:45:40;96267.25;;;15.08;100.00
18264;BME280;9258;48.668;9.172;2022-09-09T04:48:43;96251.97;;;15.21;100.00
18264;BME280;9258;48.668;9.172;2022-09-09T04:51:44;96275.94;;;15.04;100.00
18264;BME280;9258;48.668;9.172;2022-09-09T04:54:47;96264.59;;;14.93;100.00
18264;BME280;9258;48.668;9.172;2022-09-09T04:57:48;96261.47;;;14.96;100.00
18264;BME280;9258;48.668;9.172;2022-09-09T05:00:51;96266.44;;;14.98;100.00
18264;BME280;9258;48.668;9.172;2022-09-09T05:03:52;96275.66;;;14.95;100.00
18264;BME280;9258;48.668;9.172;2022-09-09T05:06:54;96276.19;;;14.97;100.00
18264;BME280;9258;48.668;9.172;2022-09-09T05:09:55;96290.13;;;14.88;100.00
18264;BME280;9258;48.668;9.172;2022-09-09T05:12:57;96282.00;;;14.94;100.00
18264;BME280;9258;48.668;9.172;2022-09-09T05:16:00;96285.94;;;14.92;100.00
18264;BME280;9258;48.668;9.172;2022-09-09T05:19:01;96279.34;;;14.94;100.00
18264;BME280;9258;48.668;9.172;2022-09-09T05:22:03;96284.09;;;15.07;100.00
18264;BME280;9258;48.668;9.172;2022-09-09T05:25:06;96288.59;;;15.07;100.00
18264;BME280;9258;48.668;9.172;2022-09-09T05:28:07;96280.13;;;15.25;100.00
18264;BME280;9258;48.668;9.172;2022-09-09T05:31:11;96273.81;;;15.31;100.00
18264;BME280;9258;48.668;9.172;2022-09-09T05:34:13;96286.22;;;15.21;100.00
18264;BME280;9258;48.668;9.172;2022-09-09T05:37:15;96283.81;;;15.24;100.00
18264;BME280;9258;48.668;9.172;2022-09-09T05:40:18;96288.53;;;15.47;100.00
18264;BME280;9258;48.668;9.172;2022-09-09T05:43:21;96288.31;;;15.69;100.00
18264;BME280;9258;48.668;9.172;2022-09-09T05:46:24;96293.81;;;15.78;100.00
18264;BME280;9258;48.668;9.172;2022-09-09T05:49:26;96298.53;;;15.86;100.00
18264;BME280;9258;48.668;9.172;2022-09-09T05:52:28;96303.59;;;15.67;100.00
18264;BME280;9258;48.668;9.172;2022-09-09T05:55:29;96306.75;;;15.64;100.00
18264;BME280;9258;48.668;9.172;2022-09-09T05:58:31;96304.63;;;15.66;100.00
18264;BME280;9258;48.668;9.172;2022-09-09T06:01:36;96303.31;;;15.64;100.00
18264;BME280;9258;48.668;9.172;2022-09-09T06:04:40;96304.88;;;15.70;100.00
18264;BME280;9258;48.668;9.172;2022-09-09T06:07:41;96306.69;;;15.84;100.00
18264;BME280;9258;48.668;9.172;2022-09-09T06:10:44;96299.31;;;15.92;100.00
18264;BME280;9258;48.668;9.172;2022-09-09T06:13:46;96298.22;;;15.98;100.00
18264;BME280;9258;48.668;9.172;2022-09-09T06:16:49;96298.97;;;16.13;100.00
18264;BME280;9258;48.668;9.172;2022-09-09T06:19:50;96298.19;;;16.18;100.00
18264;BME280;9258;48.668;9.172;2022-09-09T06:22:52;96299.47;;;16.26;100.00
18264;BME280;9258;48.668;9.172;2022-09-09T06:26:04;96295.19;;;16.35;100.00
18264;BME280;9258;48.668;9.172;2022-09-09T06:29:07;96300.47;;;16.40;100.00
18264;BME280;9258;48.668;9.172;2022-09-09T06:32:09;96298.28;;;16.52;100.00
18264;BME280;9258;48.668;9.172;2022-09-09T06:35:11;96300.94;;;16.47;100.00
18264;BME280;9258;48.668;9.172;2022-09-09T06:38:13;96311.16;;;16.58;100.00
18264;BME280;9258;48.668;9.172;2022-09-09T06:41:16;96308.47;;;16.74;100.00
18264;BME280;9258;48.668;9.172;2022-09-09T06:44:18;96308.09;;;16.90;100.00
18264;BME280;9258;48.668;9.172;2022-09-09T06:47:21;96305.34;;;17.11;100.00
18264;BME280;9258;48.668;9.172;2022-09-09T06:50:24;96300.25;;;17.19;100.00
18264;BME280;9258;48.668;9.172;2022-09-09T06:53:26;96301.97;;;17.34;100.00
18264;BME280;9258;48.668;9.172;2022-09-09T06:56:29;96309.81;;;17.44;100.00
18264;BME280;9258;48.668;9.172;2022-09-09T06:59:31;96302.88;;;17.53;100.00
18264;BME280;9258;48.668;9.172;2022-09-09T07:02:34;96299.97;;;18.08;97.23
18264;BME280;9258;48.668;9.172;2022-09-09T07:05:41;96293.09;;;18.49;93.68
18264;BME280;9258;48.668;9.172;2022-09-09T07:08:42;96306.25;;;18.35;93.74
18264;BME280;9258;48.668;9.172;2022-09-09T07:11:45;96303.13;;;18.52;93.04
18264;BME280;9258;48.668;9.172;2022-09-09T07:14:47;96312.66;;;18.53;92.61
18264;BME280;9258;48.668;9.172;2022-09-09T07:17:50;96312.94;;;18.52;93.69
18264;BME280;9258;48.668;9.172;2022-09-09T07:20:55;96310.19;;;18.62;92.44
18264;BME280;9258;48.668;9.172;2022-09-09T07:23:57;96307.13;;;18.92;91.29
18264;BME280;9258;48.668;9.172;2022-09-09T07:26:59;96301.09;;;19.05;90.59
18264;BME280;9258;48.668;9.172;2022-09-09T07:30:03;96304.94;;;19.13;89.47
18264;BME280;9258;48.668;9.172;2022-09-09T07:33:06;96316.22;;;19.05;90.75
18264;BME280;9258;48.668;9.172;2022-09-09T07:36:10;96317.25;;;19.74;86.34
18264;BME280;9258;48.668;9.172;2022-09-09T07:39:14;96298.66;;;19.60;85.94
18264;BME280;9258;48.668;9.172;2022-09-09T07:42:17;96311.50;;;19.34;89.30
18264;BME280;9258;48.668;9.172;2022-09-09T07:45:19;96310.53;;;21.67;75.64
18264;BME280;9258;48.668;9.172;2022-09-09T07:48:22;96327.22;;;21.89;73.92
18264;BME280;9258;48.668;9.172;2022-09-09T07:51:25;96326.31;;;22.25;71.96
18264;BME280;9258;48.668;9.172;2022-09-09T07:54:27;96333.41;;;23.04;67.03
18264;BME280;9258;48.668;9.172;2022-09-09T07:57:28;96326.19;;;23.56;61.31
18264;BME280;9258;48.668;9.172;2022-09-09T08:00:30;96332.94;;;23.10;65.19
18264;BME280;9258;48.668;9.172;2022-09-09T08:03:34;96331.75;;;22.11;69.58
18264;BME280;9258;48.668;9.172;2022-09-09T08:06:37;96342.84;;;23.53;63.99
18264;BME280;9258;48.668;9.172;2022-09-09T08:09:39;96339.38;;;24.84;54.29
18264;BME280;9258;48.668;9.172;2022-09-09T08:12:41;96334.38;;;25.77;49.71
18264;BME280;9258;48.668;9.172;2022-09-09T08:15:42;96331.84;;;27.15;46.42
18264;BME280;9258;48.668;9.172;2022-09-09T08:18:45;96342.13;;;27.53;44.39
18264;BME280;9258;48.668;9.172;2022-09-09T08:21:47;96350.25;;;28.12;42.20
18264;BME280;9258;48.668;9.172;2022-09-09T08:24:50;96353.50;;;27.34;43.28
18264;BME280;9258;48.668;9.172;2022-09-09T08:27:52;96351.53;;;28.65;41.22
18264;BME280;9258;48.668;9.172;2022-09-09T08:30:54;96351.28;;;28.55;41.71
18264;BME280;9258;48.668;9.172;2022-09-09T08:33:58;96351.66;;;29.04;40.90
18264;BME280;9258;48.668;9.172;2022-09-09T08:37:00;96354.91;;;30.09;39.02
18264;BME280;9258;48.668;9.172;2022-09-09T08:40:02;96349.03;;;29.85;38.10
18264;BME280;9258;48.668;9.172;2022-09-09T08:43:04;96354.44;;;30.04;37.40
18264;BME280;9258;48.668;9.172;2022-09-09T08:46:11;96359.00;;;29.81;36.46
18264;BME280;9258;48.668;9.172;2022-09-09T08:49:31;96352.94;;;29.10;38.34
18264;BME280;9258;48.668;9.172;2022-09-09T08:52:39;96372.72;;;26.47;44.24
18264;BME280;9258;48.668;9.172;2022-09-09T08:55:45;96374.94;;;26.45;45.39
18264;BME280;9258;48.668;9.172;2022-09-09T08:58:50;96371.00;;;27.56;42.91
18264;BME280;9258;48.668;9.172;2022-09-09T09:02:00;96363.72;;;29.29;38.76
18264;BME280;9258;48.668;9.172;2022-09-09T09:05:13;96359.69;;;29.78;37.68
18264;BME280;9258;48.668;9.172;2022-09-09T09:08:26;96358.78;;;30.58;35.63
18264;BME280;9258;48.668;9.172;2022-09-09T09:11:36;96357.84;;;30.24;35.78
18264;BME280;9258;48.668;9.172;2022-09-09T09:14:39;96355.16;;;29.82;37.27
18264;BME280;9258;48.668;9.172;2022-09-09T09:17:41;96360.44;;;30.92;35.40
18264;BME280;9258;48.668;9.172;2022-09-09T09:20:50;96359.97;;;31.39;34.59
18264;BME280;9258;48.668;9.172;2022-09-09T09:23:57;96375.03;;;31.40;34.61
18264;BME280;9258;48.668;9.172;2022-09-09T09:27:00;96367.69;;;26.70;33.82
18264;BME280;9258;48.668;9.172;2022-09-09T09:30:14;96363.16;;;25.27;37.38
18264;BME280;9258;48.668;9.172;2022-09-09T09:33:20;96341.41;;;25.70;36.77
18264;BME280;9258;48.668;9.172;2022-09-09T09:36:39;96350.75;;;25.43;36.58
18264;BME280;9258;48.668;9.172;2022-09-09T09:39:41;96340.31;;;24.58;38.29
18264;BME280;9258;48.668;9.172;2022-09-09T09:42:49;96331.97;;;27.06;34.73
18264;BME280;9258;48.668;9.172;2022-09-09T09:45:52;96328.13;;;29.78;31.31
18264;BME280;9258;48.668;9.172;2022-09-09T09:48:57;96327.81;;;30.74;30.66
18264;BME280;9258;48.668;9.172;2022-09-09T09:52:03;96333.94;;;28.37;33.79
18264;BME280;9258;48.668;9.172;2022-09-09T09:55:12;96325.97;;;28.91;33.50
18264;BME280;9258;48.668;9.172;2022-09-09T09:58:15;96321.34;;;30.56;32.64
18264;BME280;9258;48.668;9.172;2022-09-09T10:01:21;96316.63;;;32.47;29.71
18264;BME280;9258;48.668;9.172;2022-09-09T10:04:24;96313.72;;;30.13;32.99
18264;BME280;9258;48.668;9.172;2022-09-09T10:07:27;96306.38;;;29.29;33.87
18264;BME280;9258;48.668;9.172;2022-09-09T10:10:48;96309.59;;;28.99;34.85
18264;BME280;9258;48.668;9.172;2022-09-09T10:14:00;96317.25;;;27.84;37.03
18264;BME280;9258;48.668;9.172;2022-09-09T10:17:14;96307.09;;;26.45;39.90
18264;BME280;9258;48.668;9.172;2022-09-09T10:20:30;96307.50;;;25.53;42.36
18264;BME280;9258;48.668;9.172;2022-09-09T10:23:51;96288.69;;;25.08;44.68
18264;BME280;9258;48.668;9.172;2022-09-09T10:27:00;96287.47;;;25.38;44.35
18264;BME280;9258;48.668;9.172;2022-09-09T10:30:13;96289.31;;;26.77;41.68
18264;BME280;9258;48.668;9.172;2022-09-09T10:33:22;96283.34;;;26.31;43.23
18264;BME280;9258;48.668;9.172;2022-09-09T10:36:29;96280.13;;;28.05;38.50
18264;BME280;9258;48.668;9.172;2022-09-09T10:39:35;96278.53;;;27.29;40.42
18264;BME280;9258;48.668;9.172;2022-09-09T10:42:38;96277.59;;;30.21;36.33
18264;BME280;9258;48.668;9.172;2022-09-09T10:45:49;96278.13;;;30.79;32.53
18264;BME280;9258;48.668;9.172;2022-09-09T10:49:08;96282.34;;;31.77;27.50
18264;BME280;9258;48.668;9.172;2022-09-09T10:52:20;96279.50;;;31.26;27.98
18264;BME280;9258;48.668;9.172;2022-09-09T10:55:27;96271.34;;;33.16;26.35
18264;BME280;9258;48.668;9.172;2022-09-09T10:58:39;96285.47;;;32.78;25.89
18264;BME280;9258;48.668;9.172;2022-09-09T11:01:46;96274.63;;;29.38;29.79
18264;BME280;9258;48.668;9.172;2022-09-09T11:04:53;96269.19;;;27.82;32.62
18264;BME280;9258;48.668;9.172;2022-09-09T11:07:59;96263.00;;;27.22;33.50
18264;BME280;9258;48.668;9.172;2022-09-09T11:11:12;96264.19;;;26.08;35.83
18264;BME280;9258;48.668;9.172;2022-09-09T11:14:21;96273.72;;;24.65;38.61
18264;BME280;9258;48.668;9.172;2022-09-09T11:17:27;96281.81;;;24.19;40.47
18264;BME280;9258;48.668;9.172;2022-09-09T11:20:33;96304.19;;;23.59;45.23
18264;BME280;9258;48.668;9.172;2022-09-09T11:23:39;96308.28;;;22.79;55.65
18264;BME280;9258;48.668;9.172;2022-09-09T11:26:47;96324.00;;;21.70;66.49
18264;BME280;9258;48.668;9.172;2022-09-09T11:33:47;96342.28;;;21.05;71.49
18264;BME280;9258;48.668;9.172;2022-09-09T11:37:10;96326.81;;;24.75;54.29
18264;BME280;9258;48.668;9.172;2022-09-09T11:40:20;96327.56;;;23.70;58.28
18264;BME280;9258;48.668;9.172;2022-09-09T11:43:27;96306.84;;;24.14;53.07
18264;BME280;9258;48.668;9.172;2022-09-09T11:46:34;96315.00;;;24.56;48.11
18264;BME280;9258;48.668;9.172;2022-09-09T11:49:41;96307.66;;;23.51;51.12
18264;BME280;9258;48.668;9.172;2022-09-09T11:52:44;96306.72;;;22.86;52.50
18264;BME280;9258;48.668;9.172;2022-09-09T11:55:46;96309.22;;;22.17;58.44
18264;BME280;9258;48.668;9.172;2022-09-09T11:58:56;96308.13;;;22.18;56.38
18264;BME280;9258;48.668;9.172;2022-09-09T12:01:59;96313.09;;;21.80;57.03
18264;BME280;9258;48.668;9.172;2022-09-09T12:05:06;96312.44;;;21.75;56.08
18264;BME280;9258;48.668;9.172;2022-09-09T12:08:09;96314.75;;;23.29;51.72
18264;BME280;9258;48.668;9.172;2022-09-09T12:11:23;96307.28;;;24.54;45.51
18264;BME280;9258;48.668;9.172;2022-09-09T12:14:36;96310.72;;;25.46;44.62
18264;BME280;9258;48.668;9.172;2022-09-09T12:17:42;96316.38;;;27.24;39.65
18264;BME280;9258;48.668;9.172;2022-09-09T12:20:54;96313.03;;;28.46;35.51
18264;BME280;9258;48.668;9.172;2022-09-09T12:24:01;96305.94;;;29.08;32.95
18264;BME280;9258;48.668;9.172;2022-09-09T12:27:14;96300.06;;;29.41;34.74
18264;BME280;9258;48.668;9.172;2022-09-09T12:30:19;96301.06;;;29.52;32.23
18264;BME280;9258;48.668;9.172;2022-09-09T12:33:23;96293.75;;;29.94;32.25
18264;BME280;9258;48.668;9.172;2022-09-09T12:36:29;96283.75;;;29.14;33.80
18264;BME280;9258;48.668;9.172;2022-09-09T12:39:33;96286.75;;;25.95;38.15
18264;BME280;9258;48.668;9.172;2022-09-09T12:42:39;96282.25;;;25.09;40.44
18264;BME280;9258;48.668;9.172;2022-09-09T12:45:43;96284.94;;;27.24;37.24
18264;BME280;9258;48.668;9.172;2022-09-09T12:48:47;96280.22;;;26.94;38.33
18264;BME280;9258;48.668;9.172;2022-09-09T12:51:49;96274.31;;;25.66;40.11
18264;BME280;9258;48.668;9.172;2022-09-09T12:54:52;96272.34;;;25.55;40.76
18264;BME280;9258;48.668;9.172;2022-09-09T12:57:54;96270.81;;;25.00;41.98
18264;BME280;9258;48.668;9.172;2022-09-09T13:00:57;96261.56;;;24.89;41.19
18264;BME280;9258;48.668;9.172;2022-09-09T13:03:59;96261.94;;;25.08;40.18
18264;BME280;9258;48.668;9.172;2022-09-09T13:07:06;96278.00;;;25.08;39.58
18264;BME280;9258;48.668;9.172;2022-09-09T13:10:12;96270.28;;;23.97;41.29
18264;BME280;9258;48.668;9.172;2022-09-09T13:13:19;96267.31;;;23.99;41.15
18264;BME280;9258;48.668;9.172;2022-09-09T13:16:26;96266.22;;;23.91;41.63
18264;BME280;9258;48.668;9.172;2022-09-09T13:19:32;96263.06;;;24.36;40.75
18264;BME280;9258;48.668;9.172;2022-09-09T13:22:37;96253.31;;;25.68;38.61
18264;BME280;9258;48.668;9.172;2022-09-09T13:25:40;96252.59;;;26.29;37.66
18264;BME280;9258;48.668;9.172;2022-09-09T13:28:43;96256.22;;;26.73;37.64
18264;BME280;9258;48.668;9.172;2022-09-09T13:31:48;96259.19;;;27.23;36.08
18264;BME280;9258;48.668;9.172;2022-09-09T13:34:54;96260.53;;;27.45;36.26
18264;BME280;9258;48.668;9.172;2022-09-09T13:37:56;96263.38;;;28.43;34.77
18264;BME280;9258;48.668;9.172;2022-09-09T13:40:59;96264.03;;;26.78;38.04
18264;BME280;9258;48.668;9.172;2022-09-09T13:44:04;96260.38;;;26.46;38.65
18264;BME280;9258;48.668;9.172;2022-09-09T13:47:18;96248.78;;;26.54;38.25
18264;BME280;9258;48.668;9.172;2022-09-09T13:50:21;96251.00;;;26.03;38.30
18264;BME280;9258;48.668;9.172;2022-09-09T13:53:23;96246.31;;;26.37;37.33
18264;BME280;9258;48.668;9.172;2022-09-09T13:56:25;96240.28;;;26.40;36.71
18264;BME280;9258;48.668;9.172;2022-09-09T13:59:26;96241.84;;;25.68;39.50
18264;BME280;9258;48.668;9.172;2022-09-09T14:02:29;96236.88;;;25.58;37.97
18264;BME280;9258;48.668;9.172;2022-09-09T14:05:32;96241.41;;;25.90;37.96
18264;BME280;9258;48.668;9.172;2022-09-09T14:08:34;96239.97;;;25.35;38.39
18264;BME280;9258;48.668;9.172;2022-09-09T14:11:37;96231.25;;;25.83;37.67
18264;BME280;9258;48.668;9.172;2022-09-09T14:14:39;96226.59;;;25.47;37.67
18264;BME280;9258;48.668;9.172;2022-09-09T14:17:43;96239.84;;;24.99;38.90
18264;BME280;9258;48.668;9.172;2022-09-09T14:20:45;96237.16;;;25.32;39.27
18264;BME280;9258;48.668;9.172;2022-09-09T14:23:46;96237.84;;;25.41;38.41
18264;BME280;9258;48.668;9.172;2022-09-09T14:26:48;96231.00;;;25.31;39.83
18264;BME280;9258;48.668;9.172;2022-09-09T14:29:50;96237.41;;;24.85;40.27
18264;BME280;9258;48.668;9.172;2022-09-09T14:32:52;96231.84;;;24.49;37.63
18264;BME280;9258;48.668;9.172;2022-09-09T14:35:56;96234.22;;;23.27;38.89
18264;BME280;9258;48.668;9.172;2022-09-09T14:38:58;96227.72;;;23.63;39.09
18264;BME280;9258;48.668;9.172;2022-09-09T14:42:02;96235.81;;;23.11;40.20
18264;BME280;9258;48.668;9.172;2022-09-09T14:45:05;96242.84;;;23.24;38.97
18264;BME280;9258;48.668;9.172;2022-09-09T14:48:08;96250.22;;;23.27;39.41
18264;BME280;9258;48.668;9.172;2022-09-09T14:51:11;96234.38;;;23.86;38.29
18264;BME280;9258;48.668;9.172;2022-09-09T14:54:13;96220.91;;;23.74;39.41
18264;BME280;9258;48.668;9.172;2022-09-09T14:57:16;96235.72;;;23.63;39.55
18264;BME280;9258;48.668;9.172;2022-09-09T15:00:19;96233.25;;;23.41;39.28
18264;BME280;9258;48.668;9.172;2022-09-09T15:03:26;96230.38;;;23.63;39.63
18264;BME280;9258;48.668;9.172;2022-09-09T15:06:31;96227.38;;;23.64;39.36
18264;BME280;9258;48.668;9.172;2022-09-09T15:09:34;96227.97;;;23.70;39.98
18264;BME280;9258;48.668;9.172;2022-09-09T15:16:00;96242.56;;;23.00;41.40
18264;BME280;9258;48.668;9.172;2022-09-09T15:19:08;96246.63;;;23.15;41.99
18264;BME280;9258;48.668;9.172;2022-09-09T15:22:42;96232.25;;;23.62;41.49
18264;BME280;9258;48.668;9.172;2022-09-09T15:26:20;96223.38;;;23.24;41.19
18264;BME280;9258;48.668;9.172;2022-09-09T15:29:45;96220.09;;;23.27;41.51
18264;BME280;9258;48.668;9.172;2022-09-09T15:34:29;96221.16;;;23.34;42.09
18264;BME280;9258;48.668;9.172;2022-09-09T15:37:23;96223.63;;;23.95;40.21
18264;BME280;9258;48.668;9.172;2022-09-09T15:40:31;96227.66;;;23.16;41.24
18264;BME280;9258;48.668;9.172;2022-09-09T15:43:33;96226.38;;;23.14;40.68
18264;BME280;9258;48.668;9.172;2022-09-09T15:46:36;96236.25;;;22.61;42.59
18264;BME280;9258;48.668;9.172;2022-09-09T15:49:38;96235.91;;;22.28;42.78
18264;BME280;9258;48.668;9.172;2022-09-09T15:52:41;96235.72;;;22.08;43.27
18264;BME280;9258;48.668;9.172;2022-09-09T15:55:42;96242.31;;;21.79;44.11
18264;BME280;9258;48.668;9.172;2022-09-09T15:58:45;96240.50;;;21.58;44.16
18264;BME280;9258;48.668;9.172;2022-09-09T16:01:47;96248.44;;;21.49;45.03
18264;BME280;9258;48.668;9.172;2022-09-09T16:04:51;96255.50;;;21.53;45.07
18264;BME280;9258;48.668;9.172;2022-09-09T16:07:54;96261.00;;;21.57;44.66
18264;BME280;9258;48.668;9.172;2022-09-09T16:10:55;96256.81;;;21.34;44.82
18264;BME280;9258;48.668;9.172;2022-09-09T16:13:59;96264.78;;;21.34;45.75
18264;BME280;9258;48.668;9.172;2022-09-09T16:17:02;96261.97;;;21.16;45.15
18264;BME280;9258;48.668;9.172;2022-09-09T16:20:06;96264.75;;;20.89;46.42
18264;BME280;9258;48.668;9.172;2022-09-09T16:23:10;96265.97;;;20.83;46.56
18264;BME280;9258;48.668;9.172;2022-09-09T16:26:13;96260.34;;;20.84;46.79
18264;BME280;9258;48.668;9.172;2022-09-09T16:29:16;96272.09;;;20.70;47.66
18264;BME280;9258;48.668;9.172;2022-09-09T16:32:18;96263.88;;;20.80;47.42
18264;BME280;9258;48.668;9.172;2022-09-09T16:35:20;96272.25;;;20.87;48.66
18264;BME280;9258;48.668;9.172;2022-09-09T16:38:23;96280.59;;;20.94;48.33